createdAt,value
2023-04-02T00:00:07.664Z,10.11
2023-04-02T00:02:34.196Z,9.07
2023-04-02T00:05:01.782Z,9.34
2023-04-02T00:07:28.621Z,9.89
2023-04-02T00:09:55.223Z,10.25
2023-04-02T00:12:22.080Z,10.23
2023-04-02T00:14:48.933Z,9.00
2023-04-02T00:17:18.018Z,9.13
2023-04-02T00:19:44.919Z,9.65
2023-04-02T00:22:11.446Z,10.45
2023-04-02T00:24:38.044Z,10.80
2023-04-02T00:27:04.714Z,11.02
2023-04-02T00:29:32.269Z,11.14
2023-04-02T00:31:58.824Z,11.25
2023-04-02T00:34:25.697Z,11.28
2023-04-02T00:36:52.417Z,11.41
2023-04-02T00:39:19.011Z,10.78
2023-04-02T00:41:45.509Z,10.29
2023-04-02T00:44:12.290Z,10.12
2023-04-02T00:46:38.870Z,9.57
2023-04-02T00:49:05.334Z,9.60
2023-04-02T00:51:31.902Z,9.54
2023-04-02T00:53:58.511Z,9.49
2023-04-02T00:56:25.276Z,9.59
2023-04-02T00:58:51.822Z,10.27
2023-04-02T01:01:18.450Z,10.27
2023-04-02T01:03:45.191Z,10.16
2023-04-02T01:06:11.995Z,9.16
2023-04-02T01:08:38.836Z,8.90
2023-04-02T01:11:06.691Z,9.00
2023-04-02T01:13:33.321Z,9.22
2023-04-02T01:16:00.160Z,9.81
2023-04-02T01:18:26.842Z,9.74
2023-04-02T01:20:53.412Z,9.55
2023-04-02T01:23:20.197Z,10.02
2023-04-02T01:25:46.784Z,10.10
2023-04-02T01:28:13.297Z,9.70
2023-04-02T01:30:40.116Z,9.99
2023-04-02T01:33:06.736Z,10.15
2023-04-02T01:35:33.581Z,10.45
2023-04-02T01:38:00.390Z,9.81
2023-04-02T01:40:26.918Z,9.35
2023-04-02T01:42:58.313Z,9.41
2023-04-02T01:45:24.985Z,9.00
2023-04-02T01:47:51.758Z,9.11
2023-04-02T01:50:19.792Z,8.88
2023-04-02T01:52:46.506Z,8.85
2023-04-02T01:55:13.056Z,8.84
2023-04-02T01:57:40.649Z,9.36
2023-04-02T02:00:07.649Z,9.70
2023-04-02T02:02:34.655Z,10.22
2023-04-02T02:05:01.299Z,10.58
2023-04-02T02:07:28.153Z,10.30
2023-04-02T02:09:54.686Z,10.38
2023-04-02T02:12:21.197Z,9.70
2023-04-02T02:14:47.929Z,9.29
2023-04-02T02:17:14.753Z,9.01
2023-04-02T02:19:41.216Z,8.95
2023-04-02T02:22:07.731Z,9.09
2023-04-02T02:24:34.286Z,8.98
2023-04-02T02:27:00.828Z,9.05
2023-04-02T02:29:29.419Z,9.15
2023-04-02T02:31:56.833Z,8.63
2023-04-02T02:34:23.332Z,8.69
2023-04-02T02:36:49.833Z,8.84
2023-04-02T02:39:17.390Z,8.73
2023-04-02T02:41:43.983Z,8.53
2023-04-02T02:44:10.443Z,8.58
2023-04-02T02:46:37.223Z,9.02
2023-04-02T02:49:03.857Z,9.55
2023-04-02T02:51:30.670Z,9.94
2023-04-02T02:53:57.241Z,9.70
2023-04-02T02:56:24.049Z,10.39
2023-04-02T02:58:50.858Z,10.17
2023-04-02T03:01:17.425Z,10.18
2023-04-02T03:03:44.247Z,9.60
2023-04-02T03:06:10.973Z,9.76
2023-04-02T03:08:37.844Z,10.56
2023-04-02T03:11:04.455Z,10.74
2023-04-02T03:13:30.982Z,10.51
2023-04-02T03:15:57.511Z,10.23
2023-04-02T03:18:24.133Z,10.73
2023-04-02T03:20:51.890Z,10.56
2023-04-02T03:23:19.304Z,10.77
2023-04-02T03:25:46.984Z,10.82
2023-04-02T03:28:13.561Z,10.57
2023-04-02T03:30:40.434Z,11.03
2023-04-02T03:33:07.452Z,10.87
2023-04-02T03:35:34.235Z,10.40
2023-04-02T03:38:01.334Z,10.07
2023-04-02T03:40:27.819Z,9.91
2023-04-02T03:42:54.351Z,9.83
2023-04-02T03:45:21.210Z,10.12
2023-04-02T03:47:47.780Z,9.92
2023-04-02T03:50:14.281Z,9.63
2023-04-02T03:52:41.096Z,10.37
2023-04-02T03:55:07.720Z,10.50
2023-04-02T03:57:34.402Z,9.49
2023-04-02T04:00:01.125Z,9.73
2023-04-02T04:02:28.510Z,9.70
2023-04-02T04:04:55.171Z,9.85
2023-04-02T04:07:22.525Z,10.04
2023-04-02T04:09:49.815Z,10.22
2023-04-02T04:12:19.494Z,10.43
2023-04-02T04:14:46.100Z,10.60
2023-04-02T04:17:12.683Z,10.70
2023-04-02T04:19:39.233Z,10.76
2023-04-02T04:22:05.844Z,10.87
2023-04-02T04:24:32.358Z,10.43
2023-04-02T04:26:59.170Z,10.05
2023-04-02T04:29:25.633Z,9.56
2023-04-02T04:31:52.752Z,9.91
2023-04-02T04:34:19.302Z,9.86
2023-04-02T04:36:45.957Z,10.13
2023-04-02T04:39:12.716Z,10.33
2023-04-02T04:41:40.096Z,10.05
2023-04-02T04:44:07.464Z,10.02
2023-04-02T04:46:35.247Z,10.06
2023-04-02T04:49:02.142Z,10.61
2023-04-02T04:51:28.894Z,10.54
2023-04-02T04:53:57.201Z,10.81
2023-04-02T04:56:23.711Z,10.98
2023-04-02T04:58:50.591Z,10.25
2023-04-02T05:01:18.164Z,10.87
2023-04-02T05:03:44.876Z,11.27
2023-04-02T05:06:11.419Z,11.30
2023-04-02T05:08:38.001Z,11.49
2023-04-02T05:11:04.649Z,11.55
2023-04-02T05:13:31.489Z,11.51
2023-04-02T05:16:00.089Z,11.66
2023-04-02T05:18:27.788Z,11.70
2023-04-02T05:20:56.052Z,11.69
2023-04-02T05:23:23.876Z,11.73
2023-04-02T05:25:50.434Z,11.87
2023-04-02T05:28:19.069Z,11.78
2023-04-02T05:30:45.680Z,11.99
2023-04-02T05:33:12.560Z,11.87
2023-04-02T05:35:39.397Z,11.86
2023-04-02T05:38:08.111Z,11.89
2023-04-02T05:40:35.681Z,11.98
2023-04-02T05:43:02.195Z,11.81
2023-04-02T05:45:30.028Z,11.51
2023-04-02T05:47:56.904Z,11.55
2023-04-02T05:50:25.815Z,11.80
2023-04-02T05:52:53.577Z,11.68
2023-04-02T05:55:20.341Z,11.62
2023-04-02T05:57:59.079Z,11.45
2023-04-02T06:00:34.220Z,11.60
2023-04-02T06:03:01.009Z,10.98
2023-04-02T06:05:27.562Z,11.12
2023-04-02T06:07:54.407Z,11.37
2023-04-02T06:10:21.783Z,11.70
2023-04-02T06:12:50.336Z,11.55
2023-04-02T06:15:17.238Z,11.84
2023-04-02T06:17:43.870Z,11.87
2023-04-02T06:20:10.753Z,12.29
2023-04-02T06:22:37.325Z,12.29
2023-04-02T06:25:03.906Z,12.16
2023-04-02T06:27:30.512Z,12.16
2023-04-02T06:29:57.085Z,12.23
2023-04-02T06:32:23.766Z,11.23
2023-04-02T06:34:50.324Z,11.03
2023-04-02T06:37:16.861Z,11.33
2023-04-02T06:39:43.818Z,10.55
2023-04-02T06:42:10.845Z,11.16
2023-04-02T06:44:37.366Z,11.51
2023-04-02T06:47:03.893Z,11.55
2023-04-02T06:49:30.421Z,11.92
2023-04-02T06:51:57.251Z,12.32
2023-04-02T06:54:24.090Z,12.49
2023-04-02T06:56:50.893Z,12.65
2023-04-02T06:59:17.786Z,12.81
2023-04-02T07:01:45.140Z,13.07
2023-04-02T07:04:11.993Z,13.17
2023-04-02T07:06:38.530Z,13.26
2023-04-02T07:09:11.015Z,12.90
2023-04-02T07:11:37.870Z,12.76
2023-04-02T07:14:05.195Z,13.00
2023-04-02T07:16:34.015Z,13.12
2023-04-02T07:19:00.588Z,13.22
2023-04-02T07:21:27.101Z,13.23
2023-04-02T07:23:55.379Z,12.87
2023-04-02T07:26:21.970Z,13.16
2023-04-02T07:28:48.682Z,13.02
2023-04-02T07:31:15.247Z,13.02
2023-04-02T07:33:42.255Z,13.22
2023-04-02T07:36:09.021Z,12.64
2023-04-02T07:38:38.378Z,12.91
2023-04-02T07:41:04.960Z,13.17
2023-04-02T07:43:31.846Z,13.00
2023-04-02T07:45:58.746Z,13.11
2023-04-02T07:48:27.469Z,12.68
2023-04-02T07:50:54.326Z,12.82
2023-04-02T07:53:24.749Z,13.10
2023-04-02T07:55:53.620Z,13.18
2023-04-02T07:58:20.954Z,13.25
2023-04-02T08:00:51.127Z,13.05
2023-04-02T08:03:19.351Z,13.32
2023-04-02T08:05:46.320Z,13.65
2023-04-02T08:08:12.975Z,13.74
2023-04-02T08:10:39.643Z,13.41
2023-04-02T08:13:06.448Z,12.86
2023-04-02T08:15:36.039Z,13.17
2023-04-02T08:18:11.603Z,13.13
2023-04-02T08:20:38.231Z,13.17
2023-04-02T08:23:07.724Z,12.96
2023-04-02T08:25:35.405Z,12.75
2023-04-02T08:28:04.200Z,11.78
2023-04-02T08:30:31.662Z,12.28
2023-04-02T08:32:58.542Z,12.34
2023-04-02T08:35:25.114Z,12.91
2023-04-02T08:37:51.730Z,12.87
2023-04-02T08:40:19.076Z,13.21
2023-04-02T08:42:45.852Z,12.86
2023-04-02T08:45:38.213Z,13.62
2023-04-02T08:48:01.557Z,13.48
2023-04-02T08:50:28.424Z,13.67
2023-04-02T08:52:59.245Z,14.33
2023-04-02T08:55:26.117Z,14.57
2023-04-02T08:57:52.685Z,14.66
2023-04-02T09:00:20.028Z,14.93
2023-04-02T09:02:47.378Z,15.52
2023-04-02T09:05:14.855Z,14.95
2023-04-02T09:10:22.534Z,15.97
2023-04-02T09:12:49.232Z,15.96
2023-04-02T09:15:16.050Z,15.31
2023-04-02T09:17:54.092Z,15.14
2023-04-02T09:20:23.193Z,15.60
2023-04-02T09:22:50.012Z,15.06
2023-04-02T09:25:18.441Z,14.15
2023-04-02T09:27:45.245Z,14.04
2023-04-02T09:30:17.586Z,14.16
2023-04-02T09:32:44.811Z,13.81
2023-04-02T09:35:22.441Z,13.55
2023-04-02T09:37:56.363Z,13.09
2023-04-02T09:43:16.811Z,13.31
2023-04-02T09:45:43.372Z,13.56
2023-04-02T09:48:10.137Z,12.63
2023-04-02T09:50:37.071Z,13.54
2023-04-02T09:53:06.387Z,13.49
2023-04-02T09:55:33.335Z,13.01
2023-04-02T09:58:01.994Z,13.41
2023-04-02T10:00:32.594Z,14.23
2023-04-02T10:02:59.487Z,13.71
2023-04-02T10:08:05.966Z,14.62
2023-04-02T10:10:32.559Z,15.04
2023-04-02T10:12:59.080Z,15.32
2023-04-02T10:15:25.632Z,15.30
2023-04-02T10:17:52.577Z,14.84
2023-04-02T10:20:19.158Z,14.95
2023-04-02T10:22:45.741Z,15.01
2023-04-02T10:25:12.376Z,15.54
2023-04-02T10:27:40.045Z,15.27
2023-04-02T10:30:06.642Z,15.09
2023-04-02T10:32:34.014Z,15.19
2023-04-02T10:35:02.897Z,14.63
2023-04-02T10:37:31.561Z,13.97
2023-04-02T10:39:58.430Z,14.22
2023-04-02T10:42:26.042Z,13.42
2023-04-02T10:44:55.538Z,13.20
2023-04-02T10:47:23.172Z,13.49
2023-04-02T10:49:51.610Z,13.27
2023-04-02T10:52:20.698Z,12.25
2023-04-02T10:54:54.668Z,12.78
2023-04-02T10:57:24.740Z,11.92
2023-04-02T10:59:51.414Z,13.07
2023-04-02T11:02:20.886Z,13.43
2023-04-02T11:04:47.601Z,12.95
2023-04-02T11:07:15.297Z,12.94
2023-04-02T11:09:41.940Z,12.95
2023-04-02T11:12:09.205Z,12.23
2023-04-02T11:20:33.010Z,11.72
2023-04-02T11:23:00.406Z,11.24
2023-04-02T11:25:29.933Z,11.64
2023-04-02T11:27:56.770Z,11.65
2023-04-02T11:30:25.085Z,11.98
2023-04-02T11:32:54.166Z,12.52
2023-04-02T11:35:20.845Z,11.75
2023-04-02T11:37:47.630Z,11.82
2023-04-02T11:40:15.466Z,11.76
2023-04-02T11:42:42.039Z,12.34
2023-04-02T11:45:09.623Z,12.09
2023-04-02T11:47:36.628Z,11.28
2023-04-02T11:52:54.459Z,11.41
2023-04-02T11:55:24.341Z,11.90
2023-04-02T12:00:33.576Z,12.61
2023-04-02T12:03:00.323Z,13.41
2023-04-02T12:05:30.768Z,13.52
2023-04-02T12:08:01.772Z,11.96
2023-04-02T12:10:28.372Z,11.41
2023-04-02T12:12:54.945Z,11.36
2023-04-02T12:15:22.323Z,11.68
2023-04-02T12:17:49.187Z,11.00
2023-04-02T12:20:16.008Z,10.49
2023-04-02T12:22:42.790Z,10.68
2023-04-02T12:25:09.303Z,11.09
2023-04-02T12:27:37.992Z,11.31
2023-04-02T12:30:04.755Z,12.25
2023-04-02T12:32:31.760Z,12.49
2023-04-02T12:34:58.454Z,13.02
2023-04-02T12:37:25.183Z,13.82
2023-04-02T12:39:51.722Z,13.93
2023-04-02T12:42:19.453Z,14.53
2023-04-02T12:44:51.017Z,14.50
2023-04-02T12:47:17.780Z,14.67
2023-04-02T12:49:46.254Z,14.93
2023-04-02T12:52:13.027Z,14.76
2023-04-02T12:54:41.241Z,14.19
2023-04-02T12:57:08.166Z,14.67
2023-04-02T12:59:34.906Z,14.84
2023-04-02T13:02:06.500Z,15.27
2023-04-02T13:04:33.470Z,15.19
2023-04-02T13:07:00.240Z,15.01
2023-04-02T13:09:28.557Z,14.60
2023-04-02T13:11:55.641Z,14.69
2023-04-02T13:14:22.263Z,13.73
2023-04-02T13:16:49.797Z,13.95
2023-04-02T13:19:16.634Z,13.33
2023-04-02T13:21:43.474Z,13.42
2023-04-02T13:24:12.476Z,13.99
2023-04-02T13:26:38.962Z,14.00
2023-04-02T13:29:05.677Z,14.03
2023-04-02T13:31:34.452Z,14.21
2023-04-02T13:34:01.090Z,13.89
2023-04-02T13:36:27.921Z,14.34
2023-04-02T13:38:54.857Z,14.42
2023-04-02T13:41:28.610Z,13.56
2023-04-02T13:43:56.893Z,13.83
2023-04-02T13:46:23.406Z,14.22
2023-04-02T13:48:50.961Z,14.53
2023-04-02T13:51:18.545Z,14.29
2023-04-02T13:53:46.077Z,14.14
2023-04-02T13:56:12.588Z,14.13
2023-04-02T13:58:40.409Z,14.25
2023-04-02T14:01:08.003Z,14.64
2023-04-02T14:03:34.824Z,13.65
2023-04-02T14:06:01.402Z,14.06
2023-04-02T14:08:28.282Z,14.52
2023-04-02T14:10:54.774Z,14.51
2023-04-02T14:13:21.559Z,14.96
2023-04-02T14:15:51.712Z,15.07
2023-04-02T14:18:18.295Z,14.84
2023-04-02T14:20:45.118Z,13.99
2023-04-02T14:23:11.680Z,14.23
2023-04-02T14:25:38.472Z,13.27
2023-04-02T14:28:06.569Z,13.37
2023-04-02T14:30:35.821Z,13.25
2023-04-02T14:33:02.880Z,13.26
2023-04-02T14:35:29.788Z,13.48
2023-04-02T14:37:58.818Z,14.17
2023-04-02T14:40:26.212Z,13.98
2023-04-02T14:42:52.658Z,14.41
2023-04-02T14:45:19.444Z,14.32
2023-04-02T14:47:46.025Z,13.22
2023-04-02T14:50:12.641Z,14.32
2023-04-02T14:52:41.716Z,14.42
2023-04-02T14:55:08.413Z,14.83
2023-04-02T14:57:42.565Z,14.99
2023-04-02T15:00:13.007Z,14.81
2023-04-02T15:02:41.598Z,14.95
2023-04-02T15:05:08.470Z,13.99
2023-04-02T15:07:37.518Z,14.22
2023-04-02T15:10:06.549Z,14.45
2023-04-02T15:15:01.352Z,12.62
2023-04-02T15:17:27.991Z,12.64
2023-04-02T15:19:54.771Z,13.49
2023-04-02T15:22:23.758Z,13.57
2023-04-02T15:24:50.346Z,13.47
2023-04-02T15:27:25.065Z,13.60
2023-04-02T15:29:54.538Z,14.18
2023-04-02T15:32:22.346Z,14.27
2023-04-02T15:41:00.014Z,14.89
2023-04-02T15:43:26.773Z,14.99
2023-04-02T15:45:56.160Z,15.11
2023-04-02T15:48:23.084Z,14.92
2023-04-02T15:53:36.393Z,13.60
2023-04-02T15:56:03.153Z,13.41
2023-04-02T15:58:30.136Z,14.10
2023-04-02T16:01:00.823Z,14.25
2023-04-02T16:03:29.021Z,14.46
2023-04-02T16:05:55.819Z,14.52
2023-04-02T16:08:22.375Z,14.60
2023-04-02T16:10:49.423Z,14.61
2023-04-02T16:13:16.291Z,14.20
2023-04-02T16:15:43.097Z,13.70
2023-04-02T16:21:26.452Z,13.31
2023-04-02T16:23:53.260Z,13.22
2023-04-02T16:26:22.234Z,13.27
2023-04-02T16:28:49.118Z,13.06
2023-04-02T16:31:17.135Z,12.76
2023-04-02T16:33:46.277Z,13.07
2023-04-02T16:36:14.370Z,13.50
2023-04-02T16:38:40.947Z,13.83
2023-04-02T16:41:09.196Z,13.85
2023-04-02T16:43:38.489Z,13.39
2023-04-02T16:46:05.349Z,13.18
2023-04-02T16:51:26.199Z,12.99
2023-04-02T16:54:01.694Z,13.05
2023-04-02T16:56:29.027Z,12.85
2023-04-02T16:58:58.292Z,13.31
2023-04-02T17:01:24.917Z,13.22
2023-04-02T17:03:52.378Z,12.67
2023-04-02T17:06:22.514Z,12.25
2023-04-02T17:08:49.103Z,12.08
2023-04-02T17:11:16.538Z,12.30
2023-04-02T17:13:45.240Z,12.21
2023-04-02T17:16:11.921Z,12.34
2023-04-02T17:18:40.452Z,11.51
2023-04-02T17:21:08.939Z,11.71
2023-04-02T17:23:53.224Z,11.17
2023-04-02T17:26:23.309Z,11.18
2023-04-02T17:28:50.109Z,11.04
2023-04-02T17:31:17.809Z,11.69
2023-04-02T17:33:46.852Z,11.79
2023-04-02T17:36:13.757Z,11.67
2023-04-02T17:38:40.534Z,11.65
2023-04-02T17:41:08.681Z,11.63
2023-04-02T17:43:37.616Z,11.45
2023-04-02T17:46:04.340Z,12.19
2023-04-02T17:48:33.340Z,11.82
2023-04-02T17:51:06.318Z,11.81
2023-04-02T17:53:33.234Z,11.67
2023-04-02T17:58:49.867Z,11.95
2023-04-02T18:01:18.848Z,11.66
2023-04-02T18:03:46.240Z,11.84
2023-04-02T18:06:12.849Z,11.30
2023-04-02T18:08:44.425Z,11.18
2023-04-02T18:11:13.260Z,11.67
2023-04-02T18:13:43.668Z,11.45
2023-04-02T18:16:10.565Z,11.27
2023-04-02T18:18:37.400Z,11.55
2023-04-02T18:21:03.964Z,11.38
2023-04-02T18:23:30.993Z,10.99
2023-04-02T18:25:57.635Z,11.65
2023-04-02T18:28:24.492Z,12.11
2023-04-02T18:30:51.242Z,11.82
2023-04-02T18:36:13.709Z,11.22
2023-04-02T18:38:40.298Z,11.95
2023-04-02T18:41:06.857Z,12.07
2023-04-02T18:43:35.718Z,11.00
2023-04-02T18:46:02.665Z,12.20
2023-04-02T18:48:30.421Z,12.76
2023-04-02T19:03:54.465Z,13.42
2023-04-02T19:06:25.247Z,13.47
2023-04-02T19:08:55.172Z,13.57
2023-04-02T19:14:21.838Z,13.65
2023-04-02T19:16:49.567Z,13.68
2023-04-02T19:19:17.759Z,13.52
2023-04-02T19:21:44.721Z,13.52
2023-04-02T19:24:11.880Z,13.57
2023-04-02T19:26:40.666Z,13.63
2023-04-02T19:29:07.640Z,13.41
2023-04-02T19:31:35.996Z,13.51
2023-04-02T19:37:05.833Z,13.37
2023-04-02T19:39:34.373Z,13.12
2023-04-02T19:42:01.268Z,13.16
2023-04-02T19:44:28.905Z,13.07
2023-04-02T19:46:55.609Z,13.14
2023-04-02T19:49:22.584Z,13.15
2023-04-02T19:54:30.519Z,13.11
2023-04-02T19:56:57.978Z,13.08
2023-04-02T19:59:26.810Z,13.09
2023-04-02T20:01:55.947Z,13.17
2023-04-02T20:04:22.523Z,13.22
2023-04-02T20:06:53.881Z,13.29
2023-04-02T20:09:20.689Z,13.29
2023-04-02T20:11:47.307Z,13.21
2023-04-02T20:14:16.277Z,13.33
2023-04-02T20:16:45.890Z,13.46
2023-04-02T20:19:12.620Z,13.15
2023-04-02T20:21:46.710Z,13.21
2023-04-02T20:24:13.956Z,13.32
2023-04-02T20:26:40.695Z,13.38
2023-04-02T20:29:07.594Z,13.41
2023-04-02T20:31:37.917Z,13.46
2023-04-02T20:34:04.976Z,13.54
2023-04-02T20:36:35.979Z,13.53
2023-04-02T20:39:06.318Z,13.47
2023-04-02T20:41:35.264Z,13.56
2023-04-02T20:44:01.840Z,13.51
2023-04-02T20:46:29.444Z,13.56
2023-04-02T20:49:05.615Z,13.63
2023-04-02T20:51:33.870Z,13.60
2023-04-02T20:54:02.653Z,13.58
2023-04-02T20:56:36.630Z,13.69
2023-04-02T20:59:06.344Z,13.66
2023-04-02T21:01:34.696Z,13.65
2023-04-02T21:04:03.023Z,13.67
2023-04-02T21:06:30.621Z,13.62
2023-04-02T21:08:58.197Z,13.55
2023-04-02T21:11:27.747Z,13.58
2023-04-02T21:13:54.715Z,13.58
2023-04-02T21:16:26.171Z,13.47
2023-04-02T21:18:56.680Z,13.40
2023-04-02T21:21:23.210Z,13.58
2023-04-02T21:23:50.251Z,13.52
2023-04-02T21:26:19.888Z,13.33
2023-04-02T21:28:50.100Z,13.42
2023-04-02T21:31:16.746Z,13.50
2023-04-02T21:33:45.418Z,13.43
2023-04-02T21:36:13.011Z,13.48
2023-04-02T21:38:48.696Z,13.41
2023-04-02T21:41:16.722Z,13.45
2023-04-02T21:43:46.849Z,13.40
2023-04-02T21:46:13.856Z,13.44
2023-04-02T21:48:44.729Z,13.29
2023-04-02T21:51:11.344Z,13.49
2023-04-02T21:56:29.926Z,13.39
2023-04-02T21:58:57.088Z,13.37
2023-04-02T22:01:31.059Z,13.37
2023-04-02T22:03:58.159Z,13.36
2023-04-02T22:06:27.029Z,13.41
2023-04-02T22:09:03.823Z,13.45
2023-04-02T22:11:32.487Z,13.39
2023-04-02T22:13:59.034Z,13.10
2023-04-02T22:16:25.855Z,12.98
2023-04-02T22:18:52.659Z,12.80
2023-04-02T22:21:19.574Z,12.72
2023-04-02T22:23:47.233Z,12.84
2023-04-02T22:26:15.874Z,12.64
2023-04-02T22:28:42.734Z,12.45
2023-04-02T22:31:12.351Z,12.33
2023-04-02T22:33:40.049Z,12.48
2023-04-02T22:36:08.644Z,12.74
2023-04-02T22:38:38.298Z,12.68
2023-04-02T22:41:06.001Z,12.76
2023-04-02T22:44:05.050Z,12.66
2023-04-02T22:46:35.215Z,12.38
2023-04-02T22:49:05.921Z,12.26
2023-04-02T22:51:34.355Z,12.49
2023-04-02T22:57:08.425Z,12.87
2023-04-02T22:59:44.349Z,12.84
2023-04-02T23:05:00.986Z,13.07
2023-04-02T23:07:29.373Z,13.02
2023-04-02T23:09:55.937Z,13.12
2023-04-02T23:12:23.806Z,13.10
2023-04-02T23:14:53.522Z,13.07
2023-04-02T23:17:20.453Z,12.98
2023-04-02T23:19:47.889Z,12.52
2023-04-02T23:22:19.358Z,11.87
2023-04-02T23:24:51.217Z,11.78
2023-04-02T23:27:25.186Z,12.35
2023-04-02T23:29:52.885Z,12.23
2023-04-02T23:32:25.758Z,12.69
2023-04-02T23:34:52.742Z,12.92
2023-04-02T23:40:12.668Z,13.03
2023-04-02T23:42:41.090Z,13.11
2023-04-02T23:45:11.112Z,13.15
2023-04-02T23:47:41.495Z,13.26
2023-04-02T23:50:10.677Z,13.07
2023-04-02T23:52:44.754Z,13.07
2023-04-02T23:58:28.359Z,12.28
